sensor_id;sensor_type;location;lat;lon;timestamp;temperature;humidity
6106;DHT22;3083;51.508;7.966;2023-04-10T00:01:55;3.30;99.90
6106;DHT22;3083;51.508;7.966;2023-04-10T00:04:22;3.30;99.90
6106;DHT22;3083;51.508;7.966;2023-04-10T00:06:49;3.30;99.90
6106;DHT22;3083;51.508;7.966;2023-04-10T00:09:16;3.20;99.90
6106;DHT22;3083;51.508;7.966;2023-04-10T00:11:43;3.10;99.90
6106;DHT22;3083;51.508;7.966;2023-04-10T00:14:11;3.10;99.90
6106;DHT22;3083;51.508;7.966;2023-04-10T00:16:38;3.00;99.90
6106;DHT22;3083;51.508;7.966;2023-04-10T00:19:05;3.10;99.90
6106;DHT22;3083;51.508;7.966;2023-04-10T00:21:32;3.00;99.90
6106;DHT22;3083;51.508;7.966;2023-04-10T00:23:59;3.00;99.90
6106;DHT22;3083;51.508;7.966;2023-04-10T00:26:26;2.90;99.90
6106;DHT22;3083;51.508;7.966;2023-04-10T00:28:53;2.90;99.90
6106;DHT22;3083;51.508;7.966;2023-04-10T00:31:21;2.80;99.90
6106;DHT22;3083;51.508;7.966;2023-04-10T00:33:48;2.80;99.90
6106;DHT22;3083;51.508;7.966;2023-04-10T00:36:17;2.80;99.90
6106;DHT22;3083;51.508;7.966;2023-04-10T00:38:45;2.80;99.90
6106;DHT22;3083;51.508;7.966;2023-04-10T00:41:12;2.80;99.90
6106;DHT22;3083;51.508;7.966;2023-04-10T00:43:39;2.70;99.90
6106;DHT22;3083;51.508;7.966;2023-04-10T00:46:06;2.70;99.90
6106;DHT22;3083;51.508;7.966;2023-04-10T00:48:34;2.70;99.90
6106;DHT22;3083;51.508;7.966;2023-04-10T00:51:02;2.70;99.90
6106;DHT22;3083;51.508;7.966;2023-04-10T00:53:29;2.60;99.90
6106;DHT22;3083;51.508;7.966;2023-04-10T00:55:56;2.60;99.90
6106;DHT22;3083;51.508;7.966;2023-04-10T00:58:24;2.60;99.90
6106;DHT22;3083;51.508;7.966;2023-04-10T01:00:51;2.60;99.90
6106;DHT22;3083;51.508;7.966;2023-04-10T01:03:19;2.60;99.90
6106;DHT22;3083;51.508;7.966;2023-04-10T01:05:51;2.50;99.90
6106;DHT22;3083;51.508;7.966;2023-04-10T01:08:35;2.50;99.90
6106;DHT22;3083;51.508;7.966;2023-04-10T01:11:07;2.50;99.90
6106;DHT22;3083;51.508;7.966;2023-04-10T01:13:42;2.50;99.90
6106;DHT22;3083;51.508;7.966;2023-04-10T01:16:17;2.50;99.90
6106;DHT22;3083;51.508;7.966;2023-04-10T01:18:48;2.50;99.90
6106;DHT22;3083;51.508;7.966;2023-04-10T01:21:18;2.60;99.90
6106;DHT22;3083;51.508;7.966;2023-04-10T01:23:55;2.60;99.90
6106;DHT22;3083;51.508;7.966;2023-04-10T01:26:38;2.70;99.90
6106;DHT22;3083;51.508;7.966;2023-04-10T01:29:10;2.80;99.90
6106;DHT22;3083;51.508;7.966;2023-04-10T01:31:43;2.90;99.90
6106;DHT22;3083;51.508;7.966;2023-04-10T01:34:16;3.00;99.90
6106;DHT22;3083;51.508;7.966;2023-04-10T01:36:48;3.20;99.90
6106;DHT22;3083;51.508;7.966;2023-04-10T01:39:18;3.30;99.90
6106;DHT22;3083;51.508;7.966;2023-04-10T01:41:47;3.40;99.90
6106;DHT22;3083;51.508;7.966;2023-04-10T01:44:17;3.50;99.90
6106;DHT22;3083;51.508;7.966;2023-04-10T01:46:48;3.60;99.90
6106;DHT22;3083;51.508;7.966;2023-04-10T01:49:17;3.70;99.90
6106;DHT22;3083;51.508;7.966;2023-04-10T01:51:44;3.80;99.90
6106;DHT22;3083;51.508;7.966;2023-04-10T01:54:12;3.80;99.90
6106;DHT22;3083;51.508;7.966;2023-04-10T01:56:39;3.80;99.90
6106;DHT22;3083;51.508;7.966;2023-04-10T01:59:06;3.90;99.90
6106;DHT22;3083;51.508;7.966;2023-04-10T02:01:35;3.90;99.90
6106;DHT22;3083;51.508;7.966;2023-04-10T02:04:01;4.00;99.90
6106;DHT22;3083;51.508;7.966;2023-04-10T02:06:36;4.10;99.90
6106;DHT22;3083;51.508;7.966;2023-04-10T02:09:13;4.10;99.90
6106;DHT22;3083;51.508;7.966;2023-04-10T02:11:46;4.20;99.90
6106;DHT22;3083;51.508;7.966;2023-04-10T02:14:17;4.30;99.90
6106;DHT22;3083;51.508;7.966;2023-04-10T02:16:48;4.30;99.90
6106;DHT22;3083;51.508;7.966;2023-04-10T02:19:18;4.40;99.90
6106;DHT22;3083;51.508;7.966;2023-04-10T02:21:46;4.40;99.90
6106;DHT22;3083;51.508;7.966;2023-04-10T02:24:13;4.40;99.90
6106;DHT22;3083;51.508;7.966;2023-04-10T02:26:44;4.40;99.90
6106;DHT22;3083;51.508;7.966;2023-04-10T02:29:11;4.40;99.90
6106;DHT22;3083;51.508;7.966;2023-04-10T02:31:38;4.40;99.90
6106;DHT22;3083;51.508;7.966;2023-04-10T02:34:07;4.40;99.90
6106;DHT22;3083;51.508;7.966;2023-04-10T02:36:35;4.40;99.90
6106;DHT22;3083;51.508;7.966;2023-04-10T02:39:02;4.30;99.90
6106;DHT22;3083;51.508;7.966;2023-04-10T02:41:29;4.30;99.90
6106;DHT22;3083;51.508;7.966;2023-04-10T02:43:56;4.30;99.90
6106;DHT22;3083;51.508;7.966;2023-04-10T02:46:23;4.20;99.90
6106;DHT22;3083;51.508;7.966;2023-04-10T02:48:51;4.10;99.90
6106;DHT22;3083;51.508;7.966;2023-04-10T02:51:19;4.00;99.90
6106;DHT22;3083;51.508;7.966;2023-04-10T02:53:47;3.90;99.90
6106;DHT22;3083;51.508;7.966;2023-04-10T02:56:14;3.90;99.90
6106;DHT22;3083;51.508;7.966;2023-04-10T02:58:41;3.80;99.90
6106;DHT22;3083;51.508;7.966;2023-04-10T03:01:11;3.70;99.90
6106;DHT22;3083;51.508;7.966;2023-04-10T03:03:39;3.60;99.90
6106;DHT22;3083;51.508;7.966;2023-04-10T03:06:07;3.60;99.90
6106;DHT22;3083;51.508;7.966;2023-04-10T03:08:35;3.50;99.90
6106;DHT22;3083;51.508;7.966;2023-04-10T03:11:02;3.40;99.90
6106;DHT22;3083;51.508;7.966;2023-04-10T03:13:30;3.30;99.90
6106;DHT22;3083;51.508;7.966;2023-04-10T03:15:56;3.30;99.90
6106;DHT22;3083;51.508;7.966;2023-04-10T03:18:23;3.20;99.90
6106;DHT22;3083;51.508;7.966;2023-04-10T03:20:50;3.20;99.90
6106;DHT22;3083;51.508;7.966;2023-04-10T03:23:17;3.20;99.90
6106;DHT22;3083;51.508;7.966;2023-04-10T03:25:48;3.20;99.90
6106;DHT22;3083;51.508;7.966;2023-04-10T03:28:15;3.20;99.90
6106;DHT22;3083;51.508;7.966;2023-04-10T03:30:43;3.20;99.90
6106;DHT22;3083;51.508;7.966;2023-04-10T03:33:09;3.10;99.90
6106;DHT22;3083;51.508;7.966;2023-04-10T03:35:36;3.10;99.90
6106;DHT22;3083;51.508;7.966;2023-04-10T03:38:03;3.10;99.90
6106;DHT22;3083;51.508;7.966;2023-04-10T03:40:30;3.10;99.90
6106;DHT22;3083;51.508;7.966;2023-04-10T03:43:00;3.00;99.90
6106;DHT22;3083;51.508;7.966;2023-04-10T03:45:27;3.00;99.90
6106;DHT22;3083;51.508;7.966;2023-04-10T03:47:54;3.00;99.90
6106;DHT22;3083;51.508;7.966;2023-04-10T03:50:21;2.90;99.90
6106;DHT22;3083;51.508;7.966;2023-04-10T03:52:48;2.90;99.90
6106;DHT22;3083;51.508;7.966;2023-04-10T03:55:15;2.90;99.90
6106;DHT22;3083;51.508;7.966;2023-04-10T03:57:43;2.90;99.90
6106;DHT22;3083;51.508;7.966;2023-04-10T04:00:13;2.80;99.90
6106;DHT22;3083;51.508;7.966;2023-04-10T04:02:41;2.80;99.90
6106;DHT22;3083;51.508;7.966;2023-04-10T04:05:08;2.80;99.90
6106;DHT22;3083;51.508;7.966;2023-04-10T04:07:35;2.70;99.90
6106;DHT22;3083;51.508;7.966;2023-04-10T04:10:02;2.70;99.90
6106;DHT22;3083;51.508;7.966;2023-04-10T04:12:29;2.70;99.90
6106;DHT22;3083;51.508;7.966;2023-04-10T04:14:56;2.60;99.90
6106;DHT22;3083;51.508;7.966;2023-04-10T04:17:25;2.60;99.90
6106;DHT22;3083;51.508;7.966;2023-04-10T04:19:52;2.60;99.90
6106;DHT22;3083;51.508;7.966;2023-04-10T04:22:19;2.50;99.90
6106;DHT22;3083;51.508;7.966;2023-04-10T04:24:46;2.50;99.90
6106;DHT22;3083;51.508;7.966;2023-04-10T04:27:13;2.40;99.90
6106;DHT22;3083;51.508;7.966;2023-04-10T04:29:40;2.40;99.90
6106;DHT22;3083;51.508;7.966;2023-04-10T04:32:06;2.40;99.90
6106;DHT22;3083;51.508;7.966;2023-04-10T04:34:35;2.40;99.90
6106;DHT22;3083;51.508;7.966;2023-04-10T04:37:02;2.40;99.90
6106;DHT22;3083;51.508;7.966;2023-04-10T04:39:29;2.40;99.90
6106;DHT22;3083;51.508;7.966;2023-04-10T04:41:56;2.40;99.90
6106;DHT22;3083;51.508;7.966;2023-04-10T04:44:23;2.40;99.90
6106;DHT22;3083;51.508;7.966;2023-04-10T04:46:50;2.40;99.90
6106;DHT22;3083;51.508;7.966;2023-04-10T04:49:17;2.40;99.90
6106;DHT22;3083;51.508;7.966;2023-04-10T04:51:45;2.50;99.90
6106;DHT22;3083;51.508;7.966;2023-04-10T04:54:12;2.50;99.90
6106;DHT22;3083;51.508;7.966;2023-04-10T04:56:39;2.50;99.90
6106;DHT22;3083;51.508;7.966;2023-04-10T04:59:06;2.60;99.90
6106;DHT22;3083;51.508;7.966;2023-04-10T05:01:33;2.70;99.90
6106;DHT22;3083;51.508;7.966;2023-04-10T05:04:00;2.80;99.90
6106;DHT22;3083;51.508;7.966;2023-04-10T05:06:27;3.00;99.90
6106;DHT22;3083;51.508;7.966;2023-04-10T05:08:55;3.30;99.90
6106;DHT22;3083;51.508;7.966;2023-04-10T05:11:22;3.50;99.90
6106;DHT22;3083;51.508;7.966;2023-04-10T05:13:49;3.70;99.90
6106;DHT22;3083;51.508;7.966;2023-04-10T05:16:16;3.90;99.90
6106;DHT22;3083;51.508;7.966;2023-04-10T05:18:43;4.20;99.90
6106;DHT22;3083;51.508;7.966;2023-04-10T05:21:10;4.40;99.90
6106;DHT22;3083;51.508;7.966;2023-04-10T05:23:37;4.70;99.90
6106;DHT22;3083;51.508;7.966;2023-04-10T05:26:05;4.90;99.90
6106;DHT22;3083;51.508;7.966;2023-04-10T05:28:32;5.10;99.90
6106;DHT22;3083;51.508;7.966;2023-04-10T05:30:59;5.30;99.90
6106;DHT22;3083;51.508;7.966;2023-04-10T05:33:26;5.60;99.90
6106;DHT22;3083;51.508;7.966;2023-04-10T05:35:53;5.80;99.90
6106;DHT22;3083;51.508;7.966;2023-04-10T05:38:21;6.00;99.90
6106;DHT22;3083;51.508;7.966;2023-04-10T05:40:49;6.20;99.90
6106;DHT22;3083;51.508;7.966;2023-04-10T05:43:17;6.40;99.90
6106;DHT22;3083;51.508;7.966;2023-04-10T05:45:44;6.50;99.90
6106;DHT22;3083;51.508;7.966;2023-04-10T05:48:11;6.70;99.90
6106;DHT22;3083;51.508;7.966;2023-04-10T05:50:38;6.90;99.90
6106;DHT22;3083;51.508;7.966;2023-04-10T05:53:05;7.00;99.90
6106;DHT22;3083;51.508;7.966;2023-04-10T05:55:31;7.20;99.90
6106;DHT22;3083;51.508;7.966;2023-04-10T05:57:58;7.30;99.90
6106;DHT22;3083;51.508;7.966;2023-04-10T06:00:27;7.40;99.90
6106;DHT22;3083;51.508;7.966;2023-04-10T06:02:53;7.50;99.90
6106;DHT22;3083;51.508;7.966;2023-04-10T06:05:20;7.70;99.90
6106;DHT22;3083;51.508;7.966;2023-04-10T06:07:47;7.80;99.90
6106;DHT22;3083;51.508;7.966;2023-04-10T06:10:14;8.00;99.90
6106;DHT22;3083;51.508;7.966;2023-04-10T06:12:41;8.20;99.90
6106;DHT22;3083;51.508;7.966;2023-04-10T06:15:09;8.40;99.90
6106;DHT22;3083;51.508;7.966;2023-04-10T06:17:42;8.50;99.90
6106;DHT22;3083;51.508;7.966;2023-04-10T06:20:09;8.60;99.90
6106;DHT22;3083;51.508;7.966;2023-04-10T06:22:36;8.70;99.90
6106;DHT22;3083;51.508;7.966;2023-04-10T06:25:04;8.70;99.90
6106;DHT22;3083;51.508;7.966;2023-04-10T06:27:33;8.80;99.90
6106;DHT22;3083;51.508;7.966;2023-04-10T06:30:00;8.90;99.90
6106;DHT22;3083;51.508;7.966;2023-04-10T06:32:27;8.90;99.90
6106;DHT22;3083;51.508;7.966;2023-04-10T06:34:55;9.00;99.90
6106;DHT22;3083;51.508;7.966;2023-04-10T06:37:26;9.20;99.90
6106;DHT22;3083;51.508;7.966;2023-04-10T06:40:02;9.40;99.90
6106;DHT22;3083;51.508;7.966;2023-04-10T06:42:29;9.50;99.90
6106;DHT22;3083;51.508;7.966;2023-04-10T06:44:56;9.70;99.90
6106;DHT22;3083;51.508;7.966;2023-04-10T06:47:23;10.00;99.90
6106;DHT22;3083;51.508;7.966;2023-04-10T06:49:50;10.30;99.90
6106;DHT22;3083;51.508;7.966;2023-04-10T06:52:18;10.50;99.90
6106;DHT22;3083;51.508;7.966;2023-04-10T06:54:45;10.90;99.90
6106;DHT22;3083;51.508;7.966;2023-04-10T06:57:13;11.30;99.90
6106;DHT22;3083;51.508;7.966;2023-04-10T06:59:40;11.70;99.90
6106;DHT22;3083;51.508;7.966;2023-04-10T07:02:07;12.10;99.90
6106;DHT22;3083;51.508;7.966;2023-04-10T07:04:34;12.50;99.90
6106;DHT22;3083;51.508;7.966;2023-04-10T07:07:01;12.80;99.90
6106;DHT22;3083;51.508;7.966;2023-04-10T07:09:29;13.20;99.90
6106;DHT22;3083;51.508;7.966;2023-04-10T07:11:56;13.40;99.90
6106;DHT22;3083;51.508;7.966;2023-04-10T07:14:23;13.70;99.90
6106;DHT22;3083;51.508;7.966;2023-04-10T07:16:50;14.00;99.90
6106;DHT22;3083;51.508;7.966;2023-04-10T07:19:18;14.30;99.90
6106;DHT22;3083;51.508;7.966;2023-04-10T07:21:45;14.60;99.90
6106;DHT22;3083;51.508;7.966;2023-04-10T07:24:15;14.90;99.90
6106;DHT22;3083;51.508;7.966;2023-04-10T07:26:43;15.10;99.90
6106;DHT22;3083;51.508;7.966;2023-04-10T07:29:11;15.30;99.90
6106;DHT22;3083;51.508;7.966;2023-04-10T07:31:38;15.40;99.90
6106;DHT22;3083;51.508;7.966;2023-04-10T07:34:05;15.50;99.90
6106;DHT22;3083;51.508;7.966;2023-04-10T07:36:32;15.50;99.90
6106;DHT22;3083;51.508;7.966;2023-04-10T07:38:59;15.40;99.90
6106;DHT22;3083;51.508;7.966;2023-04-10T07:41:26;15.50;99.90
6106;DHT22;3083;51.508;7.966;2023-04-10T07:43:54;15.50;99.90
6106;DHT22;3083;51.508;7.966;2023-04-10T07:46:21;15.60;99.90
6106;DHT22;3083;51.508;7.966;2023-04-10T07:48:48;15.70;99.90
6106;DHT22;3083;51.508;7.966;2023-04-10T07:51:16;15.70;99.90
6106;DHT22;3083;51.508;7.966;2023-04-10T07:53:43;15.70;99.90
6106;DHT22;3083;51.508;7.966;2023-04-10T07:56:15;15.80;99.90
6106;DHT22;3083;51.508;7.966;2023-04-10T07:58:42;15.90;99.90
6106;DHT22;3083;51.508;7.966;2023-04-10T08:01:11;16.00;99.90
6106;DHT22;3083;51.508;7.966;2023-04-10T08:03:39;16.00;99.90
6106;DHT22;3083;51.508;7.966;2023-04-10T08:06:06;15.90;99.90
6106;DHT22;3083;51.508;7.966;2023-04-10T08:08:35;15.80;99.90
6106;DHT22;3083;51.508;7.966;2023-04-10T08:11:05;15.80;99.90
6106;DHT22;3083;51.508;7.966;2023-04-10T08:13:33;15.90;99.90
6106;DHT22;3083;51.508;7.966;2023-04-10T08:16:00;16.10;99.90
6106;DHT22;3083;51.508;7.966;2023-04-10T08:18:29;16.30;99.90
6106;DHT22;3083;51.508;7.966;2023-04-10T08:20:56;16.30;99.90
6106;DHT22;3083;51.508;7.966;2023-04-10T08:23:22;16.20;99.90
6106;DHT22;3083;51.508;7.966;2023-04-10T08:25:49;16.10;99.90
6106;DHT22;3083;51.508;7.966;2023-04-10T08:28:17;16.10;99.90
6106;DHT22;3083;51.508;7.966;2023-04-10T08:30:45;16.10;99.90
6106;DHT22;3083;51.508;7.966;2023-04-10T08:33:12;16.10;99.90
6106;DHT22;3083;51.508;7.966;2023-04-10T08:35:41;16.20;99.90
6106;DHT22;3083;51.508;7.966;2023-04-10T08:38:08;16.20;99.90
6106;DHT22;3083;51.508;7.966;2023-04-10T08:40:36;16.20;99.90
6106;DHT22;3083;51.508;7.966;2023-04-10T08:43:03;16.40;99.90
6106;DHT22;3083;51.508;7.966;2023-04-10T08:45:30;16.50;99.90
6106;DHT22;3083;51.508;7.966;2023-04-10T08:48:01;16.60;99.90
6106;DHT22;3083;51.508;7.966;2023-04-10T08:50:30;16.70;99.90
6106;DHT22;3083;51.508;7.966;2023-04-10T08:53:04;16.60;99.90
6106;DHT22;3083;51.508;7.966;2023-04-10T08:55:34;16.40;99.90
6106;DHT22;3083;51.508;7.966;2023-04-10T08:58:01;16.20;99.90
6106;DHT22;3083;51.508;7.966;2023-04-10T09:00:28;16.20;99.90
6106;DHT22;3083;51.508;7.966;2023-04-10T09:02:59;16.20;99.90
6106;DHT22;3083;51.508;7.966;2023-04-10T09:05:27;16.20;99.90
6106;DHT22;3083;51.508;7.966;2023-04-10T09:07:55;16.20;99.90
6106;DHT22;3083;51.508;7.966;2023-04-10T09:10:23;16.20;99.90
6106;DHT22;3083;51.508;7.966;2023-04-10T09:12:51;16.20;99.90
6106;DHT22;3083;51.508;7.966;2023-04-10T09:15:18;16.30;99.90
6106;DHT22;3083;51.508;7.966;2023-04-10T09:17:56;16.50;99.90
6106;DHT22;3083;51.508;7.966;2023-04-10T09:20:24;16.70;99.90
6106;DHT22;3083;51.508;7.966;2023-04-10T09:22:52;16.80;99.90
6106;DHT22;3083;51.508;7.966;2023-04-10T09:25:31;17.00;99.90
6106;DHT22;3083;51.508;7.966;2023-04-10T09:27:59;17.20;99.90
6106;DHT22;3083;51.508;7.966;2023-04-10T09:30:32;17.30;99.90
6106;DHT22;3083;51.508;7.966;2023-04-10T09:33:00;17.60;99.90
6106;DHT22;3083;51.508;7.966;2023-04-10T09:35:35;17.70;99.90
6106;DHT22;3083;51.508;7.966;2023-04-10T09:38:13;17.70;99.90
6106;DHT22;3083;51.508;7.966;2023-04-10T09:40:42;17.70;99.90
6106;DHT22;3083;51.508;7.966;2023-04-10T09:43:20;17.60;99.90
6106;DHT22;3083;51.508;7.966;2023-04-10T09:45:49;17.50;99.90
6106;DHT22;3083;51.508;7.966;2023-04-10T09:48:16;17.50;99.90
6106;DHT22;3083;51.508;7.966;2023-04-10T09:50:44;17.50;99.90
6106;DHT22;3083;51.508;7.966;2023-04-10T09:53:12;17.70;99.90
6106;DHT22;3083;51.508;7.966;2023-04-10T09:55:41;17.80;99.90
6106;DHT22;3083;51.508;7.966;2023-04-10T09:58:09;17.80;99.90
6106;DHT22;3083;51.508;7.966;2023-04-10T10:00:39;17.80;99.90
6106;DHT22;3083;51.508;7.966;2023-04-10T10:03:08;17.90;99.90
6106;DHT22;3083;51.508;7.966;2023-04-10T10:05:37;17.80;99.90
6106;DHT22;3083;51.508;7.966;2023-04-10T10:08:05;17.70;99.90
6106;DHT22;3083;51.508;7.966;2023-04-10T10:10:33;17.60;99.90
6106;DHT22;3083;51.508;7.966;2023-04-10T10:13:02;17.60;99.90
6106;DHT22;3083;51.508;7.966;2023-04-10T10:15:37;17.60;99.90
6106;DHT22;3083;51.508;7.966;2023-04-10T10:18:15;17.70;99.90
6106;DHT22;3083;51.508;7.966;2023-04-10T10:20:45;17.80;99.90
6106;DHT22;3083;51.508;7.966;2023-04-10T10:23:14;18.00;99.90
6106;DHT22;3083;51.508;7.966;2023-04-10T10:25:44;18.20;99.90
6106;DHT22;3083;51.508;7.966;2023-04-10T10:28:13;18.40;99.90
6106;DHT22;3083;51.508;7.966;2023-04-10T10:30:41;18.40;99.90
6106;DHT22;3083;51.508;7.966;2023-04-10T10:33:09;18.50;99.90
6106;DHT22;3083;51.508;7.966;2023-04-10T10:35:38;18.50;99.90
6106;DHT22;3083;51.508;7.966;2023-04-10T10:38:06;18.40;99.90
6106;DHT22;3083;51.508;7.966;2023-04-10T10:40:39;18.20;99.90
6106;DHT22;3083;51.508;7.966;2023-04-10T10:43:13;18.20;99.90
6106;DHT22;3083;51.508;7.966;2023-04-10T10:45:49;18.10;99.90
6106;DHT22;3083;51.508;7.966;2023-04-10T10:48:17;18.10;99.90
6106;DHT22;3083;51.508;7.966;2023-04-10T10:50:52;18.10;99.90
6106;DHT22;3083;51.508;7.966;2023-04-10T10:53:35;18.20;99.90
6106;DHT22;3083;51.508;7.966;2023-04-10T10:56:33;18.20;99.90
6106;DHT22;3083;51.508;7.966;2023-04-10T10:59:02;18.20;99.90
6106;DHT22;3083;51.508;7.966;2023-04-10T11:01:29;18.30;99.90
6106;DHT22;3083;51.508;7.966;2023-04-10T11:03:56;18.50;99.90
6106;DHT22;3083;51.508;7.966;2023-04-10T11:06:48;18.80;99.90
6106;DHT22;3083;51.508;7.966;2023-04-10T11:09:45;18.90;99.90
6106;DHT22;3083;51.508;7.966;2023-04-10T11:12:13;19.00;99.90
6106;DHT22;3083;51.508;7.966;2023-04-10T11:14:42;18.90;99.90
6106;DHT22;3083;51.508;7.966;2023-04-10T11:17:11;18.70;99.90
6106;DHT22;3083;51.508;7.966;2023-04-10T11:19:57;18.50;99.90
6106;DHT22;3083;51.508;7.966;2023-04-10T11:22:25;18.30;99.90
6106;DHT22;3083;51.508;7.966;2023-04-10T11:24:55;18.20;99.90
6106;DHT22;3083;51.508;7.966;2023-04-10T11:27:40;18.00;99.90
6106;DHT22;3083;51.508;7.966;2023-04-10T11:30:33;18.10;99.90
6106;DHT22;3083;51.508;7.966;2023-04-10T11:33:01;18.10;99.90
6106;DHT22;3083;51.508;7.966;2023-04-10T11:35:29;18.10;99.90
6106;DHT22;3083;51.508;7.966;2023-04-10T11:38:14;18.20;99.90
6106;DHT22;3083;51.508;7.966;2023-04-10T11:41:01;18.30;99.90
6106;DHT22;3083;51.508;7.966;2023-04-10T11:43:29;18.20;99.90
6106;DHT22;3083;51.508;7.966;2023-04-10T11:46:05;18.20;99.90
6106;DHT22;3083;51.508;7.966;2023-04-10T11:48:33;18.10;99.90
6106;DHT22;3083;51.508;7.966;2023-04-10T11:51:11;18.20;99.90
6106;DHT22;3083;51.508;7.966;2023-04-10T11:53:39;18.20;99.90
6106;DHT22;3083;51.508;7.966;2023-04-10T11:56:15;18.20;99.90
6106;DHT22;3083;51.508;7.966;2023-04-10T11:58:42;18.20;99.90
6106;DHT22;3083;51.508;7.966;2023-04-10T12:01:11;18.20;99.90
6106;DHT22;3083;51.508;7.966;2023-04-10T12:03:40;18.30;99.90
6106;DHT22;3083;51.508;7.966;2023-04-10T12:06:09;18.30;99.90
6106;DHT22;3083;51.508;7.966;2023-04-10T12:08:38;18.40;99.90
6106;DHT22;3083;51.508;7.966;2023-04-10T12:11:05;18.50;99.90
6106;DHT22;3083;51.508;7.966;2023-04-10T12:13:33;18.50;99.90
6106;DHT22;3083;51.508;7.966;2023-04-10T12:16:02;18.60;99.90
6106;DHT22;3083;51.508;7.966;2023-04-10T12:18:31;18.70;99.90
6106;DHT22;3083;51.508;7.966;2023-04-10T12:20:59;18.80;99.90
6106;DHT22;3083;51.508;7.966;2023-04-10T12:23:27;18.80;99.90
6106;DHT22;3083;51.508;7.966;2023-04-10T12:26:06;18.70;99.90
6106;DHT22;3083;51.508;7.966;2023-04-10T12:28:35;18.50;99.90
6106;DHT22;3083;51.508;7.966;2023-04-10T12:31:02;18.50;99.90
6106;DHT22;3083;51.508;7.966;2023-04-10T12:33:30;18.40;99.90
6106;DHT22;3083;51.508;7.966;2023-04-10T12:35:57;18.40;99.90
6106;DHT22;3083;51.508;7.966;2023-04-10T12:38:34;18.40;99.90
6106;DHT22;3083;51.508;7.966;2023-04-10T12:41:02;18.40;99.90
6106;DHT22;3083;51.508;7.966;2023-04-10T12:43:30;18.30;99.90
6106;DHT22;3083;51.508;7.966;2023-04-10T12:45:58;18.20;99.90
6106;DHT22;3083;51.508;7.966;2023-04-10T12:48:25;18.30;99.90
6106;DHT22;3083;51.508;7.966;2023-04-10T12:50:53;18.30;99.90
6106;DHT22;3083;51.508;7.966;2023-04-10T12:53:21;18.30;99.90
6106;DHT22;3083;51.508;7.966;2023-04-10T12:56:01;18.30;99.90
6106;DHT22;3083;51.508;7.966;2023-04-10T12:58:30;18.30;99.90
6106;DHT22;3083;51.508;7.966;2023-04-10T13:01:03;18.30;99.90
6106;DHT22;3083;51.508;7.966;2023-04-10T13:03:32;18.40;99.90
6106;DHT22;3083;51.508;7.966;2023-04-10T13:06:04;18.30;99.90
6106;DHT22;3083;51.508;7.966;2023-04-10T13:08:32;18.40;99.90
6106;DHT22;3083;51.508;7.966;2023-04-10T13:10:59;18.30;99.90
6106;DHT22;3083;51.508;7.966;2023-04-10T13:13:28;18.30;99.90
6106;DHT22;3083;51.508;7.966;2023-04-10T13:15:56;18.30;99.90
6106;DHT22;3083;51.508;7.966;2023-04-10T13:18:22;18.30;99.90
6106;DHT22;3083;51.508;7.966;2023-04-10T13:20:50;18.40;99.90
6106;DHT22;3083;51.508;7.966;2023-04-10T13:23:18;18.40;99.90
6106;DHT22;3083;51.508;7.966;2023-04-10T13:25:45;18.40;99.90
6106;DHT22;3083;51.508;7.966;2023-04-10T13:28:12;18.40;99.90
6106;DHT22;3083;51.508;7.966;2023-04-10T13:30:41;18.40;99.90
6106;DHT22;3083;51.508;7.966;2023-04-10T13:33:08;18.40;99.90
6106;DHT22;3083;51.508;7.966;2023-04-10T13:35:35;18.40;99.90
6106;DHT22;3083;51.508;7.966;2023-04-10T13:38:03;18.40;99.90
6106;DHT22;3083;51.508;7.966;2023-04-10T13:40:31;18.50;99.90
6106;DHT22;3083;51.508;7.966;2023-04-10T13:42:58;18.50;99.90
6106;DHT22;3083;51.508;7.966;2023-04-10T13:45:27;18.50;99.90
6106;DHT22;3083;51.508;7.966;2023-04-10T13:47:54;18.40;99.90
6106;DHT22;3083;51.508;7.966;2023-04-10T13:50:21;18.30;99.90
6106;DHT22;3083;51.508;7.966;2023-04-10T13:52:48;18.30;99.90
6106;DHT22;3083;51.508;7.966;2023-04-10T13:55:15;18.30;99.90
6106;DHT22;3083;51.508;7.966;2023-04-10T13:57:43;18.30;99.90
6106;DHT22;3083;51.508;7.966;2023-04-10T14:00:11;18.40;99.90
6106;DHT22;3083;51.508;7.966;2023-04-10T14:02:38;18.50;99.90
6106;DHT22;3083;51.508;7.966;2023-04-10T14:05:05;18.50;99.90
6106;DHT22;3083;51.508;7.966;2023-04-10T14:07:32;18.50;99.90
6106;DHT22;3083;51.508;7.966;2023-04-10T14:10:00;18.50;99.90
6106;DHT22;3083;51.508;7.966;2023-04-10T14:12:28;18.40;99.90
6106;DHT22;3083;51.508;7.966;2023-04-10T14:14:56;18.30;99.90
6106;DHT22;3083;51.508;7.966;2023-04-10T14:17:23;18.30;99.90
6106;DHT22;3083;51.508;7.966;2023-04-10T14:19:50;18.40;99.90
6106;DHT22;3083;51.508;7.966;2023-04-10T14:22:18;18.40;99.90
6106;DHT22;3083;51.508;7.966;2023-04-10T14:24:45;18.40;99.90
6106;DHT22;3083;51.508;7.966;2023-04-10T14:27:12;18.50;99.90
6106;DHT22;3083;51.508;7.966;2023-04-10T14:29:40;18.50;99.90
6106;DHT22;3083;51.508;7.966;2023-04-10T14:32:08;18.40;99.90
6106;DHT22;3083;51.508;7.966;2023-04-10T14:34:35;18.50;99.90
6106;DHT22;3083;51.508;7.966;2023-04-10T14:37:02;18.40;99.90
6106;DHT22;3083;51.508;7.966;2023-04-10T14:39:29;18.30;99.90
6106;DHT22;3083;51.508;7.966;2023-04-10T14:41:58;18.40;99.90
6106;DHT22;3083;51.508;7.966;2023-04-10T14:44:26;18.40;99.90
6106;DHT22;3083;51.508;7.966;2023-04-10T14:46:53;18.40;99.90
6106;DHT22;3083;51.508;7.966;2023-04-10T14:49:21;18.30;99.90
6106;DHT22;3083;51.508;7.966;2023-04-10T14:51:48;18.20;99.90
6106;DHT22;3083;51.508;7.966;2023-04-10T14:54:15;18.20;99.90
6106;DHT22;3083;51.508;7.966;2023-04-10T14:56:46;18.20;99.90
6106;DHT22;3083;51.508;7.966;2023-04-10T14:59:13;18.20;99.90
6106;DHT22;3083;51.508;7.966;2023-04-10T15:01:40;18.10;99.90
6106;DHT22;3083;51.508;7.966;2023-04-10T15:04:07;18.10;99.90
6106;DHT22;3083;51.508;7.966;2023-04-10T15:06:35;18.00;99.90
6106;DHT22;3083;51.508;7.966;2023-04-10T15:09:02;17.80;99.90
6106;DHT22;3083;51.508;7.966;2023-04-10T15:11:29;17.80;99.90
6106;DHT22;3083;51.508;7.966;2023-04-10T15:13:57;17.70;99.90
6106;DHT22;3083;51.508;7.966;2023-04-10T15:16:24;17.70;99.90
6106;DHT22;3083;51.508;7.966;2023-04-10T15:18:51;17.70;99.90
6106;DHT22;3083;51.508;7.966;2023-04-10T15:21:19;17.60;99.90
6106;DHT22;3083;51.508;7.966;2023-04-10T15:23:47;17.60;99.90
6106;DHT22;3083;51.508;7.966;2023-04-10T15:26:14;17.60;99.90
6106;DHT22;3083;51.508;7.966;2023-04-10T15:28:41;17.50;99.90
6106;DHT22;3083;51.508;7.966;2023-04-10T15:31:09;17.50;99.90
6106;DHT22;3083;51.508;7.966;2023-04-10T15:33:36;17.50;99.90
6106;DHT22;3083;51.508;7.966;2023-04-10T15:36:05;17.40;99.90
6106;DHT22;3083;51.508;7.966;2023-04-10T15:38:34;17.40;99.90
6106;DHT22;3083;51.508;7.966;2023-04-10T15:41:07;17.30;99.90
6106;DHT22;3083;51.508;7.966;2023-04-10T15:43:34;17.20;99.90
6106;DHT22;3083;51.508;7.966;2023-04-10T15:46:01;17.20;99.90
6106;DHT22;3083;51.508;7.966;2023-04-10T15:48:30;17.10;99.90
6106;DHT22;3083;51.508;7.966;2023-04-10T15:50:58;17.10;99.90
6106;DHT22;3083;51.508;7.966;2023-04-10T15:53:25;17.10;99.90
6106;DHT22;3083;51.508;7.966;2023-04-10T15:55:52;17.10;99.90
6106;DHT22;3083;51.508;7.966;2023-04-10T15:58:20;17.10;99.90
6106;DHT22;3083;51.508;7.966;2023-04-10T16:00:47;17.00;99.90
6106;DHT22;3083;51.508;7.966;2023-04-10T16:03:14;17.00;99.90
6106;DHT22;3083;51.508;7.966;2023-04-10T16:05:41;17.00;99.90
6106;DHT22;3083;51.508;7.966;2023-04-10T16:08:08;17.00;99.90
6106;DHT22;3083;51.508;7.966;2023-04-10T16:10:35;16.90;99.90
6106;DHT22;3083;51.508;7.966;2023-04-10T16:13:02;16.80;99.90
6106;DHT22;3083;51.508;7.966;2023-04-10T16:15:34;16.70;99.90
6106;DHT22;3083;51.508;7.966;2023-04-10T16:18:02;16.60;99.90